createdAt,value
2017-10-12T00:00:42.839Z,16.91
2017-10-12T00:01:42.842Z,16.95
2017-10-12T00:02:42.841Z,16.91
2017-10-12T00:03:42.840Z,16.87
2017-10-12T00:04:42.836Z,16.95
2017-10-12T00:05:42.833Z,16.90
2017-10-12T00:06:42.832Z,16.95
2017-10-12T00:07:42.831Z,16.95
2017-10-12T00:08:42.827Z,16.91
2017-10-12T00:09:42.822Z,16.91
2017-10-12T00:10:42.820Z,16.91
2017-10-12T00:11:42.819Z,16.99
2017-10-12T00:12:42.816Z,16.90
2017-10-12T00:13:42.814Z,16.95
2017-10-12T00:14:42.811Z,16.98
2017-10-12T00:15:42.811Z,16.99
2017-10-12T00:16:42.807Z,16.95
2017-10-12T00:17:42.810Z,16.90
2017-10-12T00:18:42.810Z,16.92
2017-10-12T00:19:42.806Z,16.98
2017-10-12T00:20:42.805Z,16.92
2017-10-12T00:21:42.802Z,16.85
2017-10-12T00:22:42.801Z,16.91
2017-10-12T00:23:42.798Z,16.95
2017-10-12T00:24:42.794Z,16.98
2017-10-12T00:25:42.790Z,16.95
2017-10-12T00:26:42.788Z,16.91
2017-10-12T00:27:42.785Z,16.95
2017-10-12T00:28:42.785Z,16.95
2017-10-12T00:29:42.781Z,16.95
2017-10-12T00:30:42.779Z,16.95
2017-10-12T00:31:42.778Z,16.98
2017-10-12T00:32:42.778Z,16.98
2017-10-12T00:33:42.778Z,16.90
2017-10-12T00:34:42.786Z,16.91
2017-10-12T00:35:42.774Z,16.98
2017-10-12T00:36:42.771Z,16.88
2017-10-12T00:37:42.769Z,16.88
2017-10-12T00:38:42.768Z,16.92
2017-10-12T00:39:42.766Z,16.95
2017-10-12T00:40:42.763Z,16.95
2017-10-12T00:41:42.758Z,16.87
2017-10-12T00:42:42.756Z,16.91
2017-10-12T00:43:42.754Z,16.95
2017-10-12T00:44:42.752Z,16.88
2017-10-12T00:45:42.750Z,16.87
2017-10-12T00:46:42.750Z,16.95
2017-10-12T00:47:42.746Z,16.90
2017-10-12T00:48:42.744Z,16.96
2017-10-12T00:49:42.746Z,16.92
2017-10-12T00:50:42.743Z,16.91
2017-10-12T00:51:42.742Z,16.95
2017-10-12T00:52:42.740Z,16.99
2017-10-12T00:53:42.739Z,16.91
2017-10-12T00:54:42.737Z,16.87
2017-10-12T00:55:42.733Z,16.92
2017-10-12T00:56:42.731Z,16.96
2017-10-12T00:57:42.728Z,16.96
2017-10-12T00:58:42.724Z,16.96
2017-10-12T00:59:42.723Z,16.84
2017-10-12T01:00:42.721Z,16.85
2017-10-12T01:01:42.724Z,16.90
2017-10-12T01:02:42.722Z,16.88
2017-10-12T01:03:42.720Z,16.91
2017-10-12T01:04:42.717Z,16.87
2017-10-12T01:05:42.711Z,17.02
2017-10-12T01:06:42.710Z,16.98
2017-10-12T01:07:42.708Z,16.92
2017-10-12T01:08:42.705Z,16.95
2017-10-12T01:09:42.703Z,16.87
2017-10-12T01:10:42.702Z,17.00
2017-10-12T01:11:42.701Z,16.95
2017-10-12T01:12:42.697Z,16.96
2017-10-12T01:13:42.700Z,17.03
2017-10-12T01:14:42.698Z,16.92
2017-10-12T01:15:42.696Z,17.00
2017-10-12T01:16:42.694Z,16.88
2017-10-12T01:17:42.692Z,16.95
2017-10-12T01:18:42.690Z,16.92
2017-10-12T01:19:42.688Z,17.02
2017-10-12T01:20:42.686Z,17.03
2017-10-12T01:21:42.680Z,16.99
2017-10-12T01:22:42.680Z,17.00
2017-10-12T01:23:42.677Z,16.92
2017-10-12T01:24:42.673Z,16.96
2017-10-12T01:25:42.671Z,16.88
2017-10-12T01:26:42.675Z,16.95
2017-10-12T01:27:42.669Z,16.84
2017-10-12T01:28:42.666Z,16.84
2017-10-12T01:29:42.667Z,16.81
2017-10-12T01:30:42.666Z,16.72
2017-10-12T01:31:42.665Z,16.77
2017-10-12T01:32:42.662Z,16.81
2017-10-12T01:33:42.660Z,16.70
2017-10-12T01:34:42.658Z,16.65
2017-10-12T01:35:42.657Z,16.63
2017-10-12T01:36:42.654Z,16.70
2017-10-12T01:37:42.647Z,16.55
2017-10-12T01:38:42.645Z,16.57
2017-10-12T01:39:42.645Z,16.66
2017-10-12T01:40:42.642Z,16.54
2017-10-12T01:41:42.641Z,16.57
2017-10-12T01:42:42.638Z,16.62
2017-10-12T01:43:42.635Z,16.57
2017-10-12T01:44:42.634Z,16.47
2017-10-12T01:45:42.636Z,16.48
2017-10-12T01:46:42.633Z,16.40
2017-10-12T01:47:42.633Z,16.40
2017-10-12T01:48:42.630Z,16.33
2017-10-12T01:49:42.628Z,16.37
2017-10-12T01:50:42.625Z,16.33
2017-10-12T01:51:42.624Z,16.42
2017-10-12T01:52:42.620Z,16.34
2017-10-12T01:53:42.615Z,16.40
2017-10-12T01:54:42.611Z,16.44
2017-10-12T01:55:42.609Z,16.37
2017-10-12T01:56:42.608Z,16.45
2017-10-12T01:57:42.606Z,16.37
2017-10-12T01:58:42.602Z,16.36
2017-10-12T01:59:42.600Z,16.42
2017-10-12T02:00:42.601Z,16.47
2017-10-12T02:01:42.601Z,16.50
2017-10-12T02:02:42.599Z,16.45
2017-10-12T02:03:42.595Z,16.48
2017-10-12T02:04:42.593Z,16.50
2017-10-12T02:05:42.587Z,16.50
2017-10-12T02:06:42.586Z,16.37
2017-10-12T02:07:42.583Z,16.42
2017-10-12T02:08:42.580Z,16.54
2017-10-12T02:09:42.583Z,16.52
2017-10-12T02:10:42.584Z,16.55
2017-10-12T02:11:42.578Z,16.51
2017-10-12T02:12:42.576Z,16.54
2017-10-12T02:13:42.573Z,16.51
2017-10-12T02:14:42.575Z,16.51
2017-10-12T02:15:42.570Z,16.51
2017-10-12T02:16:42.567Z,16.48
2017-10-12T02:17:42.560Z,16.40
2017-10-12T02:18:42.560Z,16.45
2017-10-12T02:19:42.557Z,16.42
2017-10-12T02:20:42.553Z,16.45
2017-10-12T02:21:42.551Z,16.48
2017-10-12T02:22:42.549Z,16.40
2017-10-12T02:23:42.546Z,16.47
2017-10-12T02:24:42.545Z,16.41
2017-10-12T02:25:42.547Z,16.45
2017-10-12T02:26:42.545Z,16.42
2017-10-12T02:27:42.543Z,16.42
2017-10-12T02:28:42.540Z,16.45
2017-10-12T02:29:42.538Z,16.42
2017-10-12T02:30:42.561Z,16.42
2017-10-12T02:31:42.539Z,16.44
2017-10-12T02:32:42.531Z,16.45
2017-10-12T02:33:42.526Z,16.51
2017-10-12T02:34:42.523Z,16.51
2017-10-12T02:35:42.523Z,16.52
2017-10-12T02:36:42.517Z,16.50
2017-10-12T02:37:42.516Z,16.52
2017-10-12T02:38:42.512Z,16.47
2017-10-12T02:39:42.511Z,16.54
2017-10-12T02:40:42.510Z,16.51
2017-10-12T02:41:42.511Z,16.51
2017-10-12T02:42:42.508Z,16.45
2017-10-12T02:43:42.511Z,16.42
2017-10-12T02:44:42.504Z,16.50
2017-10-12T02:45:42.501Z,16.48
2017-10-12T02:46:42.518Z,16.40
2017-10-12T02:47:42.498Z,16.42
2017-10-12T02:48:42.494Z,16.44
2017-10-12T02:49:42.487Z,16.41
2017-10-12T02:50:42.487Z,16.45
2017-10-12T02:51:42.483Z,16.42
2017-10-12T02:52:42.481Z,16.42
2017-10-12T02:53:42.480Z,16.50
2017-10-12T02:54:42.479Z,16.48
2017-10-12T02:55:42.475Z,16.41
2017-10-12T02:56:42.472Z,16.41
2017-10-12T02:57:42.475Z,16.42
2017-10-12T02:58:42.471Z,16.37
2017-10-12T02:59:42.470Z,16.36
2017-10-12T03:00:42.468Z,16.47
2017-10-12T03:01:42.465Z,16.40
2017-10-12T03:02:42.462Z,16.37
2017-10-12T03:03:42.460Z,16.30
2017-10-12T03:04:42.458Z,16.26
2017-10-12T03:05:42.453Z,16.23
2017-10-12T03:06:42.457Z,16.23
2017-10-12T03:07:42.446Z,16.27
2017-10-12T03:08:42.444Z,16.26
2017-10-12T03:09:42.442Z,16.25
2017-10-12T03:10:42.443Z,16.26
2017-10-12T03:11:42.437Z,16.11
2017-10-12T03:12:42.439Z,16.17
2017-10-12T03:13:42.435Z,16.10
2017-10-12T03:14:42.434Z,16.11
2017-10-12T03:15:42.432Z,16.22
2017-10-12T03:16:42.429Z,16.11
2017-10-12T03:17:42.427Z,16.25
2017-10-12T03:18:42.424Z,16.26
2017-10-12T03:19:42.423Z,16.22
2017-10-12T03:20:42.418Z,16.25
2017-10-12T03:21:42.412Z,16.23
2017-10-12T03:22:42.409Z,16.23
2017-10-12T03:23:42.408Z,16.25
2017-10-12T03:24:42.405Z,16.18
2017-10-12T03:25:42.402Z,16.26
2017-10-12T03:26:42.401Z,16.29
2017-10-12T03:27:42.397Z,16.32
2017-10-12T03:28:42.395Z,16.32
2017-10-12T03:29:42.396Z,16.40
2017-10-12T03:30:42.395Z,16.32
2017-10-12T03:31:42.395Z,16.45
2017-10-12T03:32:42.390Z,16.40
2017-10-12T03:33:42.388Z,16.45
2017-10-12T03:34:42.384Z,16.47
2017-10-12T03:35:42.389Z,16.50
2017-10-12T03:36:42.380Z,16.47
2017-10-12T03:37:42.374Z,16.37
2017-10-12T03:38:42.371Z,16.41
2017-10-12T03:39:42.377Z,16.42
2017-10-12T03:40:42.368Z,16.37
2017-10-12T03:41:42.364Z,16.41
2017-10-12T03:42:42.363Z,16.47
2017-10-12T03:43:42.360Z,16.36
2017-10-12T03:44:42.358Z,16.37
2017-10-12T03:45:42.359Z,16.34
2017-10-12T03:46:42.358Z,16.40
2017-10-12T03:47:42.356Z,16.36
2017-10-12T03:48:42.353Z,16.40
2017-10-12T03:49:42.350Z,16.37
2017-10-12T03:50:42.350Z,16.42
2017-10-12T03:51:42.347Z,16.36
2017-10-12T03:52:42.344Z,16.42
2017-10-12T03:53:42.337Z,16.45
2017-10-12T03:54:42.335Z,16.34
2017-10-12T03:55:42.333Z,16.27
2017-10-12T03:56:42.329Z,16.30
2017-10-12T03:57:42.327Z,16.25
2017-10-12T03:58:42.325Z,16.17
2017-10-12T03:59:42.324Z,16.11
2017-10-12T04:00:42.320Z,16.14
2017-10-12T04:01:42.323Z,16.13
2017-10-12T04:02:42.320Z,16.04
2017-10-12T04:03:42.319Z,16.06
2017-10-12T04:04:42.321Z,15.99
2017-10-12T04:05:42.313Z,15.98
2017-10-12T04:06:42.311Z,15.89
2017-10-12T04:07:42.308Z,15.86
2017-10-12T04:08:42.304Z,15.84
2017-10-12T04:09:42.299Z,15.77
2017-10-12T04:10:42.296Z,15.76
2017-10-12T04:11:42.292Z,15.71
2017-10-12T04:12:42.290Z,15.71
2017-10-12T04:13:42.292Z,15.77
2017-10-12T04:14:42.290Z,15.70
2017-10-12T04:15:42.292Z,15.64
2017-10-12T04:16:42.284Z,15.70
2017-10-12T04:17:42.278Z,15.77
2017-10-12T04:18:42.277Z,15.74
2017-10-12T04:19:42.272Z,15.73
2017-10-12T04:20:42.269Z,15.77
2017-10-12T04:21:42.267Z,15.74
2017-10-12T04:22:42.265Z,15.80
2017-10-12T04:23:42.261Z,15.84
2017-10-12T04:24:42.258Z,15.78
2017-10-12T04:25:42.260Z,15.85
2017-10-12T04:26:42.259Z,15.84
2017-10-12T04:27:42.256Z,15.85
2017-10-12T04:28:42.253Z,15.85
2017-10-12T04:29:42.250Z,15.89
2017-10-12T04:30:42.248Z,15.95
2017-10-12T04:31:42.246Z,15.98
2017-10-12T04:32:42.243Z,15.93
2017-10-12T04:33:42.237Z,15.99
2017-10-12T04:34:42.233Z,15.98
2017-10-12T04:35:42.232Z,16.03
2017-10-12T04:36:42.228Z,16.04
2017-10-12T04:37:42.234Z,15.96
2017-10-12T04:38:42.224Z,16.04
2017-10-12T04:39:42.222Z,16.04
2017-10-12T04:40:42.220Z,16.03
2017-10-12T04:41:42.222Z,15.99
2017-10-12T04:42:42.219Z,16.16
2017-10-12T04:43:42.216Z,16.22
2017-10-12T04:44:42.215Z,16.11
2017-10-12T04:45:42.213Z,16.16
2017-10-12T04:46:42.209Z,16.23
2017-10-12T04:47:42.209Z,16.25
2017-10-12T04:48:42.208Z,16.17
2017-10-12T04:49:42.199Z,16.11
2017-10-12T04:50:42.196Z,16.13
2017-10-12T04:51:42.195Z,16.14
2017-10-12T04:52:42.193Z,16.17
2017-10-12T04:53:42.205Z,16.13
2017-10-12T04:54:42.188Z,16.08
2017-10-12T04:55:42.186Z,16.07
2017-10-12T04:56:42.183Z,16.10
2017-10-12T04:57:42.186Z,16.14
2017-10-12T04:58:42.184Z,16.04
2017-10-12T04:59:42.181Z,16.06
2017-10-12T05:00:42.179Z,16.10
2017-10-12T05:01:42.176Z,16.08
2017-10-12T05:02:42.175Z,16.07
2017-10-12T05:03:42.172Z,16.03
2017-10-12T05:04:42.169Z,15.99
2017-10-12T05:05:42.162Z,16.04
2017-10-12T05:06:42.162Z,15.96
2017-10-12T05:07:42.158Z,15.96
2017-10-12T05:08:42.157Z,16.01
2017-10-12T05:09:42.157Z,16.04
2017-10-12T05:10:42.166Z,15.99
2017-10-12T05:11:42.150Z,15.93
2017-10-12T05:12:42.147Z,15.91
2017-10-12T05:13:42.150Z,15.89
2017-10-12T05:14:42.148Z,15.80
2017-10-12T05:15:42.147Z,15.84
2017-10-12T05:16:42.143Z,15.85
2017-10-12T05:17:42.136Z,15.86
2017-10-12T05:18:42.134Z,15.91
2017-10-12T05:19:42.138Z,15.86
2017-10-12T05:20:42.129Z,15.85
2017-10-12T05:21:42.131Z,15.76
2017-10-12T05:22:42.130Z,15.78
2017-10-12T05:23:42.128Z,15.85
2017-10-12T05:24:42.124Z,15.86
2017-10-12T05:25:42.120Z,15.78
2017-10-12T05:26:42.120Z,15.91
2017-10-12T05:27:42.119Z,15.89
2017-10-12T05:28:42.115Z,15.77
2017-10-12T05:29:42.107Z,15.78
2017-10-12T05:30:42.106Z,15.73
2017-10-12T05:31:42.105Z,15.71
2017-10-12T05:32:42.100Z,15.56
2017-10-12T05:33:42.100Z,15.53
2017-10-12T05:34:42.095Z,15.46
2017-10-12T05:35:42.093Z,15.37
2017-10-12T05:36:42.091Z,15.34
2017-10-12T05:37:42.093Z,15.33
2017-10-12T05:38:42.089Z,15.16
2017-10-12T05:39:42.089Z,15.13
2017-10-12T05:40:42.085Z,15.05
2017-10-12T05:41:42.082Z,15.05
2017-10-12T05:42:42.083Z,14.94
2017-10-12T05:43:42.078Z,14.82
2017-10-12T05:44:42.072Z,14.87
2017-10-12T05:45:42.065Z,14.75
2017-10-12T05:46:42.064Z,14.79
2017-10-12T05:47:42.061Z,14.69
2017-10-12T05:48:42.058Z,14.74
2017-10-12T05:49:42.054Z,14.66
2017-10-12T05:50:42.052Z,14.67
2017-10-12T05:51:42.049Z,14.74
2017-10-12T05:52:42.047Z,14.64
2017-10-12T05:53:42.046Z,14.72
2017-10-12T05:54:42.043Z,14.67
2017-10-12T05:55:42.040Z,14.63
2017-10-12T05:56:42.036Z,14.71
2017-10-12T05:57:42.034Z,14.74
2017-10-12T05:58:42.031Z,14.71
2017-10-12T05:59:42.027Z,14.69
2017-10-12T06:00:42.023Z,14.69
2017-10-12T06:01:42.017Z,14.69
2017-10-12T06:02:42.015Z,14.60
2017-10-12T06:03:42.018Z,14.67
2017-10-12T06:04:42.007Z,14.64
2017-10-12T06:05:42.003Z,14.72
2017-10-12T06:06:42.003Z,14.71
2017-10-12T06:07:41.996Z,14.71
2017-10-12T06:08:41.994Z,14.66
2017-10-12T06:09:41.995Z,14.82
2017-10-12T06:10:41.992Z,14.79
2017-10-12T06:11:41.989Z,14.82
2017-10-12T06:12:41.984Z,14.85
2017-10-12T06:13:41.983Z,14.87
2017-10-12T06:14:41.979Z,14.87
2017-10-12T06:15:41.975Z,14.97
2017-10-12T06:16:41.975Z,15.07
2017-10-12T06:17:41.965Z,15.16
2017-10-12T06:18:41.965Z,15.37
2017-10-12T06:19:41.960Z,15.46
2017-10-12T06:20:41.956Z,15.64
2017-10-12T06:21:41.958Z,15.95
2017-10-12T06:22:41.955Z,16.26
2017-10-12T06:23:41.953Z,16.52
2017-10-12T06:24:41.948Z,16.82
2017-10-12T06:25:41.942Z,16.88
2017-10-12T06:26:41.938Z,17.06
2017-10-12T06:27:41.938Z,17.17
2017-10-12T06:28:41.934Z,17.33
2017-10-12T06:29:41.931Z,17.32
2017-10-12T06:30:41.930Z,17.25
2017-10-12T06:31:41.928Z,17.06
2017-10-12T06:32:41.927Z,16.92
2017-10-12T06:33:41.929Z,16.77
2017-10-12T06:34:41.926Z,16.63
2017-10-12T06:35:41.929Z,16.55
2017-10-12T06:36:41.929Z,16.55
2017-10-12T06:37:41.922Z,16.42
2017-10-12T06:38:41.920Z,16.29
2017-10-12T06:39:41.919Z,16.25
2017-10-12T06:40:41.917Z,16.10
2017-10-12T06:41:41.910Z,16.08
2017-10-12T06:42:41.910Z,16.10
2017-10-12T06:43:41.907Z,16.04
2017-10-12T06:44:41.904Z,15.95
2017-10-12T06:45:41.904Z,15.95
2017-10-12T06:46:41.902Z,15.84
2017-10-12T06:47:41.901Z,15.88
2017-10-12T06:48:41.899Z,15.84
2017-10-12T06:49:41.902Z,15.86
2017-10-12T06:50:41.899Z,15.93
2017-10-12T06:51:41.897Z,16.11
2017-10-12T06:52:41.896Z,16.01
2017-10-12T06:53:41.895Z,15.99
2017-10-12T06:54:41.892Z,16.11
2017-10-12T06:55:41.891Z,16.11
2017-10-12T06:56:41.888Z,16.25
2017-10-12T06:57:41.882Z,16.54
2017-10-12T06:58:41.881Z,17.25
2017-10-12T06:59:41.885Z,17.71
2017-10-12T07:00:41.880Z,18.34
2017-10-12T07:01:41.877Z,18.84
2017-10-12T07:02:41.876Z,19.12
2017-10-12T07:03:41.874Z,19.15
2017-10-12T07:04:41.873Z,18.87
2017-10-12T07:05:41.876Z,18.71
2017-10-12T07:06:41.880Z,18.64
2017-10-12T07:07:41.907Z,18.56
2017-10-12T07:08:41.874Z,18.53
2017-10-12T07:09:41.874Z,18.64
2017-10-12T07:10:41.873Z,18.84
2017-10-12T07:11:41.876Z,18.78
2017-10-12T07:12:41.874Z,18.79
2017-10-12T07:13:41.870Z,18.99
2017-10-12T07:14:41.871Z,19.25
2017-10-12T07:15:41.875Z,19.46
2017-10-12T07:16:41.869Z,19.43
2017-10-12T07:17:41.871Z,19.60
2017-10-12T07:18:41.871Z,19.97
2017-10-12T07:19:41.871Z,19.79
2017-10-12T07:20:41.871Z,19.98
2017-10-12T07:21:41.876Z,19.89
2017-10-12T07:22:41.879Z,19.97
2017-10-12T07:23:41.877Z,19.71
2017-10-12T07:24:41.879Z,19.71
2017-10-12T07:25:41.875Z,19.55
2017-10-12T07:26:41.880Z,19.21
2017-10-12T07:27:41.877Z,18.94
2017-10-12T07:28:41.877Z,18.66
2017-10-12T07:29:41.884Z,18.60
2017-10-12T07:30:41.887Z,18.60
2017-10-12T07:31:41.886Z,18.50
2017-10-12T07:32:41.886Z,18.50
2017-10-12T07:33:41.885Z,18.44
2017-10-12T07:34:41.886Z,18.66
2017-10-12T07:35:41.889Z,18.84
2017-10-12T07:36:41.889Z,19.28
2017-10-12T07:37:41.885Z,19.46
2017-10-12T07:38:41.886Z,19.57
2017-10-12T07:39:41.889Z,19.72
2017-10-12T07:40:41.893Z,19.85
2017-10-12T07:41:41.889Z,19.78
2017-10-12T07:42:41.891Z,19.90
2017-10-12T07:43:41.892Z,20.07
2017-10-12T07:44:41.894Z,19.75
2017-10-12T07:45:41.899Z,19.71
2017-10-12T07:46:41.900Z,19.75
2017-10-12T07:47:41.901Z,19.76
2017-10-12T07:48:41.954Z,19.97
2017-10-12T07:49:41.905Z,20.20
2017-10-12T07:50:41.907Z,19.87
2017-10-12T07:51:41.908Z,19.60
2017-10-12T07:52:41.910Z,19.45
2017-10-12T07:53:41.906Z,19.42
2017-10-12T07:54:41.909Z,19.68
2017-10-12T07:55:41.911Z,19.92
2017-10-12T07:56:41.913Z,19.79
2017-10-12T07:57:41.914Z,19.52
2017-10-12T07:58:41.916Z,19.42
2017-10-12T07:59:41.923Z,19.43
2017-10-12T08:00:41.918Z,19.16
2017-10-12T08:01:41.925Z,18.84
2017-10-12T08:02:41.928Z,18.83
2017-10-12T08:03:41.928Z,18.69
2017-10-12T08:04:41.930Z,18.62
2017-10-12T08:05:41.932Z,18.32
2017-10-12T08:06:41.933Z,18.32
2017-10-12T08:07:41.935Z,18.13
2017-10-12T08:08:41.991Z,18.29
2017-10-12T08:09:41.932Z,18.25
2017-10-12T08:10:41.936Z,18.29
2017-10-12T08:11:41.936Z,18.47
2017-10-12T08:12:41.937Z,18.29
2017-10-12T08:13:41.938Z,18.31
2017-10-12T08:14:41.940Z,18.38
2017-10-12T08:15:41.941Z,18.47
2017-10-12T08:16:41.941Z,18.50
2017-10-12T08:17:41.947Z,18.60
2017-10-12T08:18:41.948Z,19.06
2017-10-12T08:19:41.950Z,19.39
2017-10-12T08:20:41.950Z,19.27
2017-10-12T08:21:41.951Z,19.01
2017-10-12T08:22:41.953Z,19.10
2017-10-12T08:23:41.953Z,19.24
2017-10-12T08:24:41.954Z,19.31
2017-10-12T08:25:41.952Z,19.40
2017-10-12T08:26:41.960Z,19.65
2017-10-12T08:27:41.955Z,19.35
2017-10-12T08:28:41.956Z,19.67
2017-10-12T08:29:41.960Z,19.72
2017-10-12T08:30:41.972Z,19.94
2017-10-12T08:31:41.965Z,19.90
2017-10-12T08:32:41.965Z,20.22
2017-10-12T08:33:41.964Z,20.34
2017-10-12T08:34:41.966Z,20.31
2017-10-12T08:35:41.966Z,20.15
2017-10-12T08:36:41.968Z,20.00
2017-10-12T08:37:41.972Z,19.78
2017-10-12T08:38:41.973Z,19.80
2017-10-12T08:39:41.974Z,19.87
2017-10-12T08:40:41.977Z,19.40
2017-10-12T08:41:41.982Z,19.52
2017-10-12T08:42:41.984Z,19.71
2017-10-12T08:43:41.987Z,20.16
2017-10-12T08:44:41.987Z,20.27
2017-10-12T08:45:41.990Z,20.50
2017-10-12T08:46:41.998Z,20.68
2017-10-12T08:47:41.996Z,20.57
2017-10-12T08:48:41.998Z,20.64
2017-10-12T08:49:41.995Z,20.51
2017-10-12T08:50:41.999Z,20.82
2017-10-12T08:51:41.999Z,21.00
2017-10-12T08:52:42.002Z,21.22
2017-10-12T08:53:42.004Z,21.64
2017-10-12T08:54:42.007Z,21.94
2017-10-12T08:55:42.011Z,22.15
2017-10-12T08:56:42.012Z,22.42
2017-10-12T08:57:42.018Z,23.41
2017-10-12T08:58:42.023Z,23.54
2017-10-12T08:59:42.025Z,25.02
2017-10-12T09:00:42.029Z,24.41
2017-10-12T09:01:42.032Z,24.05
2017-10-12T09:02:42.035Z,23.50
2017-10-12T09:03:42.040Z,23.68
2017-10-12T09:04:42.043Z,25.09
2017-10-12T09:05:42.044Z,25.19
2017-10-12T09:06:42.048Z,25.59
2017-10-12T09:07:42.076Z,25.72
2017-10-12T09:08:42.058Z,26.64
2017-10-12T09:09:42.062Z,27.93
2017-10-12T09:10:42.069Z,28.54
2017-10-12T09:11:42.072Z,28.79
2017-10-12T09:12:42.082Z,28.35
2017-10-12T09:13:42.103Z,27.81
2017-10-12T09:14:42.094Z,26.81
2017-10-12T09:15:42.100Z,27.45
2017-10-12T09:16:42.107Z,26.83
2017-10-12T09:17:42.113Z,26.49
2017-10-12T09:18:42.120Z,25.01
2017-10-12T09:19:42.128Z,25.29
2017-10-12T09:20:42.134Z,25.83
2017-10-12T09:21:42.139Z,26.23
2017-10-12T09:22:42.146Z,26.53
2017-10-12T09:23:42.161Z,26.83
2017-10-12T09:24:42.161Z,27.38
2017-10-12T09:25:42.169Z,27.25
2017-10-12T09:26:42.178Z,26.66
2017-10-12T09:27:42.184Z,28.14
2017-10-12T09:28:42.192Z,28.62
2017-10-12T09:29:42.205Z,29.51
2017-10-12T09:30:42.213Z,29.69
2017-10-12T09:31:42.221Z,30.53
2017-10-12T09:32:42.230Z,30.64
2017-10-12T09:33:42.235Z,30.51
2017-10-12T09:34:42.244Z,30.73
2017-10-12T09:35:42.255Z,30.68
2017-10-12T09:36:42.263Z,30.26
2017-10-12T09:37:42.276Z,29.36
2017-10-12T09:38:42.289Z,29.41
2017-10-12T09:39:42.299Z,29.35
2017-10-12T09:40:42.316Z,28.48
2017-10-12T09:41:42.320Z,27.28
2017-10-12T09:42:42.329Z,25.83
2017-10-12T09:43:42.342Z,25.35
2017-10-12T09:44:42.350Z,25.66
2017-10-12T09:45:42.357Z,25.19
2017-10-12T09:46:42.370Z,25.27
2017-10-12T09:47:42.395Z,25.53
2017-10-12T09:48:42.386Z,26.96
2017-10-12T09:49:42.398Z,28.33
2017-10-12T09:50:42.405Z,29.21
2017-10-12T09:51:42.415Z,28.65
2017-10-12T09:52:42.425Z,27.38
2017-10-12T09:53:42.438Z,27.06
2017-10-12T09:54:42.448Z,26.79
2017-10-12T09:55:42.457Z,25.94
2017-10-12T09:56:42.465Z,26.73
2017-10-12T09:57:42.476Z,26.51
2017-10-12T09:58:42.484Z,25.45
2017-10-12T09:59:42.494Z,25.17
2017-10-12T10:00:42.503Z,25.19
2017-10-12T10:01:42.508Z,24.33
2017-10-12T10:02:42.515Z,24.90
2017-10-12T10:03:42.526Z,24.64
2017-10-12T10:04:42.533Z,24.60
2017-10-12T10:05:42.541Z,24.23
2017-10-12T10:06:42.551Z,24.87
2017-10-12T10:07:42.559Z,24.39
2017-10-12T10:08:42.566Z,23.92
2017-10-12T10:09:42.578Z,23.67
2017-10-12T10:10:42.587Z,24.05
2017-10-12T10:11:42.594Z,24.59
2017-10-12T10:12:42.600Z,23.93
2017-10-12T10:13:42.609Z,24.42
2017-10-12T10:14:42.615Z,24.44
2017-10-12T10:15:42.633Z,24.61
2017-10-12T10:16:42.628Z,24.48
2017-10-12T10:17:42.631Z,24.00
2017-10-12T10:18:42.638Z,23.69
2017-10-12T10:19:42.645Z,23.45
2017-10-12T10:20:42.654Z,23.41
2017-10-12T10:21:42.658Z,23.71
2017-10-12T10:22:42.664Z,23.56
2017-10-12T10:23:42.672Z,23.53
2017-10-12T10:24:42.677Z,23.54
2017-10-12T10:25:42.688Z,23.44
2017-10-12T10:26:42.695Z,22.97
2017-10-12T10:27:42.701Z,23.35
2017-10-12T10:28:42.706Z,23.23
2017-10-12T10:29:42.713Z,23.42
2017-10-12T10:30:42.719Z,23.14
2017-10-12T10:31:42.726Z,23.14
2017-10-12T10:32:42.732Z,23.32
2017-10-12T10:33:42.731Z,23.14
2017-10-12T10:34:42.739Z,22.56
2017-10-12T10:35:42.745Z,22.12
2017-10-12T10:36:42.748Z,22.35
2017-10-12T10:37:42.760Z,22.82
2017-10-12T10:38:42.763Z,22.35
2017-10-12T10:39:42.769Z,22.82
2017-10-12T10:40:42.772Z,22.14
2017-10-12T10:41:42.773Z,22.15
2017-10-12T10:42:42.780Z,22.61
2017-10-12T10:43:42.789Z,23.16
2017-10-12T10:44:42.790Z,23.09
2017-10-12T10:45:42.795Z,22.60
2017-10-12T10:46:42.800Z,23.00
2017-10-12T10:47:42.806Z,23.77
2017-10-12T10:48:42.810Z,23.53
2017-10-12T10:49:42.819Z,23.71
2017-10-12T10:50:42.825Z,23.47
2017-10-12T10:51:42.830Z,22.96
2017-10-12T10:52:42.836Z,23.25
2017-10-12T10:53:42.840Z,23.44
2017-10-12T10:54:42.846Z,23.41
2017-10-12T10:55:42.851Z,23.94
2017-10-12T10:56:42.855Z,24.00
2017-10-12T10:57:42.857Z,24.30
2017-10-12T10:58:42.864Z,25.20
2017-10-12T10:59:42.868Z,25.79
2017-10-12T11:00:42.872Z,26.69
2017-10-12T11:01:42.878Z,26.97
2017-10-12T11:02:42.885Z,27.61
2017-10-12T11:03:42.891Z,27.91
2017-10-12T11:04:42.899Z,27.20
2017-10-12T11:05:42.905Z,26.81
2017-10-12T11:06:42.912Z,26.35
2017-10-12T11:07:42.920Z,26.42
2017-10-12T11:08:42.930Z,26.66
2017-10-12T11:09:42.931Z,26.65
2017-10-12T11:10:42.941Z,26.65
2017-10-12T11:11:42.945Z,26.11
2017-10-12T11:12:42.952Z,25.16
2017-10-12T11:13:42.956Z,24.59
2017-10-12T11:14:42.960Z,24.19
2017-10-12T11:15:42.967Z,24.30
2017-10-12T11:16:42.974Z,24.06
2017-10-12T11:17:42.985Z,24.05
2017-10-12T11:18:42.995Z,23.44
2017-10-12T11:19:42.993Z,23.39
2017-10-12T11:20:42.999Z,23.25
2017-10-12T11:21:43.009Z,23.31
2017-10-12T11:22:43.016Z,22.94
2017-10-12T11:23:43.023Z,22.78
2017-10-12T11:24:43.034Z,22.64
2017-10-12T11:25:43.034Z,22.63
2017-10-12T11:26:43.037Z,22.21
2017-10-12T11:27:43.044Z,22.17
2017-10-12T11:28:43.049Z,22.24
2017-10-12T11:29:43.049Z,22.21
2017-10-12T11:30:43.056Z,22.26
2017-10-12T11:31:43.061Z,22.36
2017-10-12T11:32:43.066Z,22.29
2017-10-12T11:33:43.070Z,22.35
2017-10-12T11:34:43.074Z,22.31
2017-10-12T11:35:43.080Z,22.15
2017-10-12T11:36:43.082Z,22.05
2017-10-12T11:37:43.092Z,22.12
2017-10-12T11:38:43.097Z,21.93
2017-10-12T11:39:43.103Z,21.93
2017-10-12T11:40:43.105Z,22.01
2017-10-12T11:41:43.113Z,21.94
2017-10-12T11:42:43.116Z,22.02
2017-10-12T11:43:43.121Z,21.93
2017-10-12T11:44:43.123Z,21.91
2017-10-12T11:45:43.126Z,21.94
2017-10-12T11:46:43.133Z,22.20
2017-10-12T11:47:43.133Z,22.41
2017-10-12T11:48:43.135Z,22.35
2017-10-12T11:49:43.139Z,22.09
2017-10-12T11:50:43.142Z,21.90
2017-10-12T11:51:43.161Z,21.89
2017-10-12T11:52:43.152Z,22.08
2017-10-12T11:53:43.159Z,22.08
2017-10-12T11:54:43.162Z,22.05
2017-10-12T11:55:43.166Z,21.96
2017-10-12T11:56:43.172Z,21.85
2017-10-12T11:57:43.174Z,22.19
2017-10-12T11:58:43.178Z,22.09
2017-10-12T11:59:43.181Z,22.19
2017-10-12T12:00:43.195Z,22.09
2017-10-12T12:01:43.185Z,22.23
2017-10-12T12:02:43.188Z,22.29
2017-10-12T12:03:43.193Z,22.12
2017-10-12T12:04:43.194Z,22.23
2017-10-12T12:05:43.197Z,22.29
2017-10-12T12:06:43.203Z,22.35
2017-10-12T12:07:43.206Z,21.89
2017-10-12T12:08:43.209Z,21.83
2017-10-12T12:09:43.216Z,21.90
2017-10-12T12:10:43.221Z,21.85
2017-10-12T12:11:43.225Z,21.79
2017-10-12T12:12:43.226Z,21.86
2017-10-12T12:13:43.229Z,21.79
2017-10-12T12:14:43.237Z,21.58
2017-10-12T12:15:43.237Z,21.49
2017-10-12T12:16:43.241Z,21.40
2017-10-12T12:17:43.246Z,21.45
2017-10-12T12:18:43.244Z,21.49
2017-10-12T12:19:43.247Z,21.46
2017-10-12T12:20:43.248Z,21.56
2017-10-12T12:21:43.258Z,21.52
2017-10-12T12:22:43.257Z,21.61
2017-10-12T12:23:43.259Z,21.64
2017-10-12T12:24:43.262Z,21.48
2017-10-12T12:25:43.268Z,21.53
2017-10-12T12:26:43.271Z,21.40
2017-10-12T12:27:43.275Z,21.34
2017-10-12T12:28:43.278Z,21.48
2017-10-12T12:29:43.280Z,21.53
2017-10-12T12:30:43.283Z,21.53
2017-10-12T12:31:43.287Z,21.53
2017-10-12T12:32:43.290Z,21.34
2017-10-12T12:33:43.287Z,21.38
2017-10-12T12:34:43.291Z,21.19
2017-10-12T12:35:43.300Z,21.36
2017-10-12T12:36:43.296Z,21.30
2017-10-12T12:37:43.300Z,21.27
2017-10-12T12:38:43.302Z,21.03
2017-10-12T12:39:43.305Z,20.83
2017-10-12T12:40:43.308Z,20.68
2017-10-12T12:41:43.315Z,20.82
2017-10-12T12:42:43.317Z,20.73
2017-10-12T12:43:43.319Z,20.81
2017-10-12T12:44:43.321Z,20.78
2017-10-12T12:45:43.322Z,20.68
2017-10-12T12:46:43.323Z,20.64
2017-10-12T12:47:43.325Z,20.50
2017-10-12T12:48:43.328Z,20.44
2017-10-12T12:49:43.335Z,20.51
2017-10-12T12:50:43.338Z,20.34
2017-10-12T12:51:43.339Z,20.44
2017-10-12T12:52:43.341Z,20.40